createdAt,value
2019-05-16T00:00:51.369Z,9.00
2019-05-16T00:03:21.527Z,8.80
2019-05-16T00:05:54.420Z,8.70
2019-05-16T00:08:22.727Z,8.60
2019-05-16T00:10:53.006Z,8.50
2019-05-16T00:13:23.040Z,8.60
2019-05-16T00:15:53.144Z,8.50
2019-05-16T00:18:22.966Z,8.60
2019-05-16T00:20:52.751Z,8.60
2019-05-16T00:23:22.446Z,8.50
2019-05-16T00:25:52.483Z,8.50
2019-05-16T00:28:22.322Z,8.50
2019-05-16T00:30:52.885Z,8.50
2019-05-16T00:33:22.701Z,8.50
2019-05-16T00:36:02.596Z,8.50
2019-05-16T00:38:24.118Z,8.60
2019-05-16T00:40:53.754Z,8.60
2019-05-16T00:43:24.120Z,8.60
2019-05-16T00:45:53.857Z,8.60
2019-05-16T00:48:24.375Z,8.70
2019-05-16T00:50:54.168Z,8.80
2019-05-16T00:53:24.210Z,8.80
2019-05-16T00:55:54.427Z,8.80
2019-05-16T00:58:24.660Z,8.90
2019-05-16T01:00:54.349Z,8.90
2019-05-16T01:03:24.039Z,8.90
2019-05-16T01:05:53.774Z,8.90
2019-05-16T01:08:23.993Z,8.80
2019-05-16T01:10:53.764Z,8.80
2019-05-16T01:13:23.627Z,8.80
2019-05-16T01:15:53.414Z,8.80
2019-05-16T01:18:23.253Z,8.90
2019-05-16T01:20:53.140Z,8.80
2019-05-16T01:23:23.244Z,8.80
2019-05-16T01:25:53.356Z,8.70
2019-05-16T01:28:23.480Z,8.70
2019-05-16T01:30:53.214Z,8.70
2019-05-16T01:33:23.169Z,8.80
2019-05-16T01:35:52.924Z,8.70
2019-05-16T01:38:23.050Z,8.70
2019-05-16T01:40:53.429Z,8.60
2019-05-16T01:43:23.303Z,8.70
2019-05-16T01:45:53.501Z,8.70
2019-05-16T01:48:23.290Z,8.60
2019-05-16T01:50:53.658Z,8.60
2019-05-16T01:53:23.726Z,8.60
2019-05-16T01:55:53.779Z,8.60
2019-05-16T01:58:23.686Z,8.60
2019-05-16T02:01:05.855Z,8.60
2019-05-16T02:03:25.360Z,8.60
2019-05-16T02:05:55.168Z,8.70
2019-05-16T02:08:24.767Z,8.70
2019-05-16T02:10:54.491Z,8.70
2019-05-16T02:13:24.597Z,8.70
2019-05-16T02:15:54.446Z,8.80
2019-05-16T02:18:24.522Z,8.70
2019-05-16T02:21:13.206Z,8.70
2019-05-16T02:23:42.859Z,8.70
2019-05-16T02:26:12.928Z,8.80
2019-05-16T02:28:43.770Z,8.80
2019-05-16T02:31:15.272Z,8.90
2019-05-16T02:33:45.398Z,8.80
2019-05-16T02:36:15.041Z,8.80
2019-05-16T02:38:44.797Z,8.80
2019-05-16T02:41:14.665Z,8.80
2019-05-16T02:43:44.443Z,8.80
2019-05-16T02:46:14.041Z,8.80
2019-05-16T02:48:44.051Z,8.80
2019-05-16T02:51:13.808Z,8.80
2019-05-16T02:53:43.985Z,8.80
2019-05-16T02:56:13.628Z,8.80
2019-05-16T02:58:44.798Z,8.80
2019-05-16T03:01:15.277Z,8.70
2019-05-16T03:03:45.295Z,8.70
2019-05-16T03:06:15.905Z,8.70
2019-05-16T03:08:47.470Z,8.80
2019-05-16T03:11:20.844Z,8.80
2019-05-16T03:13:51.580Z,8.70
2019-05-16T03:16:23.616Z,8.70
2019-05-16T03:18:54.807Z,8.60
2019-05-16T03:21:25.257Z,8.70
2019-05-16T03:23:55.283Z,8.80
2019-05-16T03:26:25.369Z,8.80
2019-05-16T03:28:55.496Z,8.80
2019-05-16T03:31:25.494Z,8.70
2019-05-16T03:33:59.155Z,8.80
2019-05-16T03:36:27.165Z,8.80
2019-05-16T03:38:57.538Z,8.90
2019-05-16T03:41:27.260Z,9.00
2019-05-16T03:43:56.951Z,9.00
2019-05-16T03:46:26.827Z,9.00
2019-05-16T03:48:56.915Z,9.10
2019-05-16T03:51:26.788Z,9.10
2019-05-16T03:53:56.768Z,9.10
2019-05-16T03:56:27.246Z,9.20
2019-05-16T03:58:56.940Z,9.20
2019-05-16T04:01:27.116Z,9.20
2019-05-16T04:03:56.945Z,9.20
2019-05-16T04:06:27.320Z,9.20
2019-05-16T04:08:57.104Z,9.20
2019-05-16T04:11:26.783Z,9.30
2019-05-16T04:13:56.641Z,9.30
2019-05-16T04:16:26.489Z,9.40
2019-05-16T04:18:56.599Z,9.50
2019-05-16T04:21:26.987Z,9.60
2019-05-16T04:23:56.632Z,9.60
2019-05-16T04:26:26.464Z,9.70
2019-05-16T04:28:56.743Z,9.80
2019-05-16T04:31:26.908Z,9.90
2019-05-16T04:33:56.829Z,9.80
2019-05-16T04:36:26.551Z,10.00
2019-05-16T04:38:56.634Z,10.00
2019-05-16T04:41:26.851Z,10.00
2019-05-16T04:44:00.454Z,10.00
2019-05-16T04:46:31.292Z,10.00
2019-05-16T04:49:01.746Z,10.10
2019-05-16T04:51:31.325Z,10.30
2019-05-16T04:54:03.449Z,10.40
2019-05-16T04:56:33.656Z,10.60
2019-05-16T04:59:03.275Z,10.80
2019-05-16T05:01:32.915Z,11.00
2019-05-16T05:04:10.778Z,11.30
2019-05-16T05:06:34.704Z,11.50
2019-05-16T05:09:05.631Z,11.30
2019-05-16T05:11:35.820Z,11.20
2019-05-16T05:14:04.569Z,11.60
2019-05-16T05:16:34.346Z,12.80
2019-05-16T05:19:02.998Z,13.40
2019-05-16T05:21:31.642Z,14.00
2019-05-16T05:24:00.565Z,14.90
2019-05-16T05:26:30.602Z,16.20
2019-05-16T05:29:00.429Z,16.30
2019-05-16T05:31:35.148Z,16.50
2019-05-16T05:34:02.085Z,17.70
2019-05-16T05:36:31.943Z,17.60
2019-05-16T05:39:11.111Z,18.40
2019-05-16T05:41:33.317Z,18.10
2019-05-16T05:44:03.015Z,18.00
2019-05-16T05:46:32.678Z,19.10
2019-05-16T05:49:02.404Z,19.10
2019-05-16T05:51:32.539Z,20.70
2019-05-16T05:54:02.236Z,20.20
2019-05-16T05:56:31.903Z,19.60
2019-05-16T05:59:01.672Z,20.30
2019-05-16T06:01:31.646Z,21.10
2019-05-16T06:04:02.659Z,20.60
2019-05-16T06:06:32.326Z,20.80
2019-05-16T06:09:02.472Z,21.10
2019-05-16T06:11:32.798Z,22.00
2019-05-16T06:14:02.664Z,21.90
2019-05-16T06:16:32.707Z,21.50
2019-05-16T06:19:02.378Z,21.90
2019-05-16T06:21:33.156Z,20.60
2019-05-16T06:24:03.742Z,21.10
2019-05-16T06:26:33.747Z,21.80
2019-05-16T06:29:03.462Z,20.40
2019-05-16T06:31:33.346Z,18.70
2019-05-16T06:34:08.513Z,18.00
2019-05-16T06:36:33.862Z,17.80
2019-05-16T06:39:04.938Z,17.40
2019-05-16T06:41:33.457Z,17.20
2019-05-16T06:44:03.551Z,17.70
2019-05-16T06:46:52.593Z,16.20
2019-05-16T06:49:05.512Z,16.00
2019-05-16T06:51:34.260Z,15.40
2019-05-16T06:54:04.364Z,15.20
2019-05-16T06:56:33.069Z,14.90
2019-05-16T06:59:01.933Z,14.40
2019-05-16T07:01:30.934Z,14.80
2019-05-16T07:04:00.206Z,15.00
2019-05-16T07:06:50.395Z,16.00
2019-05-16T07:09:01.104Z,17.40
2019-05-16T07:11:30.634Z,17.80
2019-05-16T07:14:00.595Z,17.30
2019-05-16T07:16:29.979Z,20.30
2019-05-16T07:19:00.865Z,21.10
2019-05-16T07:24:07.818Z,19.80
2019-05-16T07:26:36.827Z,18.70
2019-05-16T07:29:06.884Z,17.50
2019-05-16T07:31:37.055Z,16.10
2019-05-16T07:34:07.221Z,16.00
2019-05-16T07:37:00.328Z,16.50
2019-05-16T07:39:30.644Z,16.10
2019-05-16T07:42:00.680Z,15.60
2019-05-16T07:44:31.247Z,15.20
2019-05-16T07:47:01.553Z,15.10
2019-05-16T07:49:31.730Z,14.80
2019-05-16T07:52:01.550Z,14.90
2019-05-16T07:54:34.638Z,15.20
2019-05-16T07:57:16.180Z,15.10
2019-05-16T07:59:34.674Z,15.30
2019-05-16T08:02:04.422Z,15.80
2019-05-16T08:04:34.669Z,15.50
2019-05-16T08:07:23.489Z,15.20
2019-05-16T08:09:53.157Z,15.40
2019-05-16T08:12:26.232Z,15.00
2019-05-16T08:14:54.613Z,14.60
2019-05-16T08:17:24.334Z,14.60
2019-05-16T08:19:54.332Z,15.10
2019-05-16T08:22:24.133Z,15.70
2019-05-16T08:24:53.970Z,15.90
2019-05-16T08:27:24.096Z,17.10
2019-05-16T08:29:54.145Z,16.90
2019-05-16T08:32:24.177Z,16.80
2019-05-16T08:34:54.153Z,16.10
2019-05-16T08:37:37.051Z,14.90
2019-05-16T08:39:55.488Z,15.20
2019-05-16T08:42:25.152Z,15.50
2019-05-16T08:44:54.920Z,15.30
2019-05-16T08:47:24.613Z,15.60
2019-05-16T08:49:54.340Z,15.30
2019-05-16T08:52:24.148Z,14.60
2019-05-16T08:54:54.271Z,14.30
2019-05-16T08:57:27.882Z,14.20
2019-05-16T08:59:55.481Z,13.90
2019-05-16T09:02:35.514Z,13.70
2019-05-16T09:04:56.788Z,13.70
2019-05-16T09:07:26.830Z,13.70
2019-05-16T09:10:00.081Z,13.30
2019-05-16T09:12:28.028Z,13.40
2019-05-16T09:14:59.320Z,13.20
2019-05-16T09:17:29.446Z,13.70
2019-05-16T09:19:59.221Z,14.10
2019-05-16T09:22:28.862Z,13.50
2019-05-16T09:24:58.603Z,13.60
2019-05-16T09:27:28.268Z,13.30
2019-05-16T09:29:58.134Z,13.50
2019-05-16T09:32:28.189Z,14.30
2019-05-16T09:34:58.548Z,14.70
2019-05-16T09:37:28.210Z,15.20
2019-05-16T09:39:57.321Z,15.80
2019-05-16T09:42:27.673Z,16.60
2019-05-16T09:44:58.053Z,16.90
2019-05-16T09:47:28.445Z,17.00
2019-05-16T09:49:59.600Z,16.70
2019-05-16T09:52:29.736Z,16.30
2019-05-16T09:54:59.503Z,16.10
2019-05-16T09:57:29.241Z,15.70
2019-05-16T09:59:59.552Z,15.80
2019-05-16T10:02:29.280Z,15.50
2019-05-16T10:04:58.866Z,16.40
2019-05-16T10:07:28.945Z,16.60
2019-05-16T10:09:58.767Z,17.10
2019-05-16T10:12:28.950Z,16.80
2019-05-16T10:14:59.807Z,16.70
2019-05-16T10:17:29.790Z,16.30
2019-05-16T10:20:00.112Z,16.30
2019-05-16T10:22:30.452Z,16.40
2019-05-16T10:25:00.115Z,16.60
2019-05-16T10:27:30.062Z,17.20
2019-05-16T10:30:01.190Z,16.40
2019-05-16T10:32:31.330Z,16.60
2019-05-16T10:35:01.121Z,16.20
2019-05-16T10:37:30.950Z,16.60
2019-05-16T10:40:00.759Z,16.90
2019-05-16T10:42:30.892Z,17.00
2019-05-16T10:45:00.886Z,16.50
2019-05-16T10:47:31.458Z,17.20
2019-05-16T10:50:01.516Z,16.90
2019-05-16T10:52:31.483Z,16.70
2019-05-16T10:55:02.577Z,17.00
2019-05-16T10:57:32.979Z,16.50
2019-05-16T11:00:12.411Z,17.20
2019-05-16T11:02:36.976Z,17.30
2019-05-16T11:05:25.921Z,16.60
2019-05-16T11:07:38.486Z,17.20
2019-05-16T11:10:08.801Z,17.40
2019-05-16T11:12:50.700Z,18.00
2019-05-16T11:15:11.862Z,17.90
2019-05-16T11:17:41.565Z,17.50
2019-05-16T11:20:11.771Z,18.30
2019-05-16T11:22:41.590Z,18.10
2019-05-16T11:25:24.242Z,17.40
2019-05-16T11:27:43.495Z,17.90
2019-05-16T11:30:13.511Z,17.40
2019-05-16T11:32:43.206Z,17.90
2019-05-16T11:35:16.897Z,17.00
2019-05-16T11:37:47.459Z,17.70
2019-05-16T11:40:18.105Z,16.90
2019-05-16T11:43:05.380Z,18.00
2019-05-16T11:45:20.464Z,18.30
2019-05-16T11:47:50.471Z,17.70
2019-05-16T11:50:20.484Z,16.80
2019-05-16T11:52:50.135Z,16.40
2019-05-16T11:55:20.437Z,16.70
2019-05-16T11:57:50.091Z,17.20
2019-05-16T12:00:20.203Z,17.60
2019-05-16T12:02:49.867Z,17.00
2019-05-16T12:05:19.915Z,17.00
2019-05-16T12:07:50.092Z,17.30
2019-05-16T12:10:20.464Z,17.40
2019-05-16T12:12:50.243Z,18.00
2019-05-16T12:15:21.013Z,18.00
2019-05-16T12:18:01.001Z,18.10
2019-05-16T12:20:22.992Z,18.80
2019-05-16T12:22:53.079Z,18.80
2019-05-16T12:25:23.225Z,18.60
2019-05-16T12:27:51.927Z,18.80
2019-05-16T12:30:20.541Z,19.00
2019-05-16T12:32:49.102Z,18.70
2019-05-16T12:35:18.191Z,19.00
2019-05-16T12:37:48.263Z,19.20
2019-05-16T12:40:19.694Z,18.20
2019-05-16T12:42:49.434Z,18.70
2019-05-16T12:45:19.594Z,19.00
2019-05-16T12:47:49.371Z,18.40
2019-05-16T12:50:20.369Z,18.90
2019-05-16T12:52:49.952Z,18.40
2019-05-16T12:55:19.629Z,18.30
2019-05-16T12:57:50.074Z,18.60
2019-05-16T13:00:20.379Z,18.80
2019-05-16T13:02:50.468Z,19.20
2019-05-16T13:05:20.373Z,18.70
2019-05-16T13:07:50.135Z,18.50
2019-05-16T13:10:20.077Z,18.40
2019-05-16T13:12:50.051Z,18.50
2019-05-16T13:15:20.893Z,18.80
2019-05-16T13:17:50.985Z,19.10
2019-05-16T13:20:20.795Z,18.70
2019-05-16T13:22:51.471Z,18.20
2019-05-16T13:25:21.234Z,18.00
2019-05-16T13:27:51.051Z,18.80
2019-05-16T13:30:21.069Z,18.40
2019-05-16T13:32:51.198Z,17.80
2019-05-16T13:35:21.332Z,18.40
2019-05-16T13:37:51.526Z,18.70
2019-05-16T13:40:21.499Z,18.10
2019-05-16T13:42:51.465Z,18.60
2019-05-16T13:45:21.658Z,18.60
2019-05-16T13:47:51.776Z,18.90
2019-05-16T13:50:21.769Z,18.90
2019-05-16T13:52:51.530Z,19.00
2019-05-16T13:55:21.872Z,18.70
2019-05-16T13:57:51.899Z,18.20
2019-05-16T14:00:22.633Z,18.30
2019-05-16T14:02:52.381Z,18.70
2019-05-16T14:05:22.327Z,18.80
2019-05-16T14:07:52.167Z,17.60
2019-05-16T14:10:22.321Z,18.00
2019-05-16T14:12:52.130Z,18.20
2019-05-16T14:15:22.211Z,17.80
2019-05-16T14:17:52.313Z,17.50
2019-05-16T14:20:22.085Z,16.90
2019-05-16T14:22:51.860Z,17.20
2019-05-16T14:25:22.265Z,17.80
2019-05-16T14:27:52.127Z,17.50
2019-05-16T14:30:22.203Z,17.20
2019-05-16T14:32:51.998Z,16.60
2019-05-16T14:35:22.076Z,17.20
2019-05-16T14:37:57.479Z,17.10
2019-05-16T14:40:23.691Z,16.60
2019-05-16T14:42:53.525Z,17.40
2019-05-16T14:45:23.459Z,17.40
2019-05-16T14:47:54.268Z,17.80
2019-05-16T14:50:27.303Z,17.70
2019-05-16T14:52:56.658Z,17.00
2019-05-16T14:55:27.489Z,17.30
2019-05-16T14:57:57.645Z,17.00
2019-05-16T15:00:27.831Z,16.00
2019-05-16T15:02:57.888Z,16.30
2019-05-16T15:05:28.551Z,16.30
2019-05-16T15:07:58.647Z,16.40
2019-05-16T15:10:28.799Z,16.40
2019-05-16T15:12:58.966Z,16.10
2019-05-16T15:15:29.468Z,16.00
2019-05-16T15:17:59.522Z,16.00
2019-05-16T15:20:29.446Z,16.30
2019-05-16T15:22:59.239Z,15.60
2019-05-16T15:25:29.029Z,15.20
2019-05-16T15:28:00.494Z,15.50
2019-05-16T15:30:30.336Z,15.50
2019-05-16T15:33:00.410Z,15.10
2019-05-16T15:35:30.641Z,15.00
2019-05-16T15:38:00.876Z,14.70
2019-05-16T15:40:30.680Z,15.40
2019-05-16T15:43:00.832Z,15.60
2019-05-16T15:45:43.143Z,15.70
2019-05-16T15:48:11.173Z,15.80
2019-05-16T15:50:41.525Z,15.90
2019-05-16T15:53:11.387Z,15.90
2019-05-16T15:55:41.613Z,15.90
2019-05-16T15:58:11.765Z,15.70
2019-05-16T16:00:43.508Z,15.50
2019-05-16T16:03:17.345Z,16.00
2019-05-16T16:05:45.098Z,16.20
2019-05-16T16:08:17.793Z,16.00
2019-05-16T16:10:47.882Z,16.00
2019-05-16T16:13:19.771Z,15.10
2019-05-16T16:15:54.104Z,15.00
2019-05-16T16:18:21.953Z,15.50
2019-05-16T16:20:52.180Z,15.50
2019-05-16T16:23:22.515Z,15.40
2019-05-16T16:25:52.774Z,15.30
2019-05-16T16:28:22.706Z,15.40
2019-05-16T16:30:52.515Z,15.80
2019-05-16T16:33:26.274Z,16.10
2019-05-16T16:35:53.569Z,15.80
2019-05-16T16:38:24.419Z,16.00
2019-05-16T16:40:57.180Z,15.50
2019-05-16T16:43:26.321Z,15.60
2019-05-16T16:46:06.030Z,15.50
2019-05-16T16:48:27.526Z,15.80
2019-05-16T16:50:57.585Z,15.60
2019-05-16T16:53:27.260Z,15.40
2019-05-16T16:55:57.137Z,15.30
2019-05-16T16:58:26.992Z,15.20
2019-05-16T17:00:56.675Z,15.30
2019-05-16T17:03:46.979Z,15.10
2019-05-16T17:06:17.689Z,15.10
2019-05-16T17:08:47.644Z,15.00
2019-05-16T17:11:17.395Z,15.00
2019-05-16T17:13:47.333Z,14.90
2019-05-16T17:16:25.827Z,14.80
2019-05-16T17:18:48.628Z,15.00
2019-05-16T17:21:18.809Z,14.90
2019-05-16T17:23:49.412Z,15.00
2019-05-16T17:26:19.606Z,14.40
2019-05-16T17:28:49.881Z,14.50
2019-05-16T17:31:20.405Z,14.50
2019-05-16T17:33:50.562Z,14.30
2019-05-16T17:36:20.555Z,14.30
2019-05-16T17:38:50.662Z,14.20
2019-05-16T17:41:20.579Z,14.20
2019-05-16T17:43:50.393Z,13.80
2019-05-16T17:46:33.695Z,13.80
2019-05-16T17:48:51.581Z,13.90
2019-05-16T17:51:21.501Z,13.90
2019-05-16T17:53:51.206Z,14.00
2019-05-16T17:56:21.248Z,14.10
2019-05-16T17:58:51.119Z,13.80
2019-05-16T18:01:20.875Z,13.90
2019-05-16T18:03:50.761Z,13.90
2019-05-16T18:06:21.041Z,13.80
2019-05-16T18:08:50.586Z,14.10
2019-05-16T18:11:20.356Z,14.10
2019-05-16T18:13:50.085Z,13.90
2019-05-16T18:16:20.759Z,13.70
2019-05-16T18:18:50.731Z,13.70
2019-05-16T18:21:20.780Z,13.60
2019-05-16T18:23:50.879Z,13.70
2019-05-16T18:26:21.147Z,13.70
2019-05-16T18:28:51.048Z,13.50
2019-05-16T18:31:20.902Z,13.60
2019-05-16T18:33:51.487Z,13.60
2019-05-16T18:36:21.635Z,13.40
2019-05-16T18:38:51.657Z,13.30
2019-05-16T18:41:21.795Z,13.30
2019-05-16T18:43:51.938Z,13.10
2019-05-16T18:46:21.672Z,13.10
2019-05-16T18:48:51.524Z,13.20
2019-05-16T18:51:21.341Z,12.90
2019-05-16T18:53:51.515Z,13.00
2019-05-16T18:56:21.344Z,12.90
2019-05-16T18:58:51.065Z,12.90
2019-05-16T19:01:20.642Z,12.80
2019-05-16T19:03:50.360Z,12.80
2019-05-16T19:06:20.104Z,12.80
2019-05-16T19:08:49.870Z,12.70
2019-05-16T19:11:20.077Z,12.70
2019-05-16T19:13:49.867Z,12.70
2019-05-16T19:16:19.739Z,12.50
2019-05-16T19:18:49.452Z,12.50
2019-05-16T19:21:19.887Z,12.50
2019-05-16T19:23:50.358Z,12.50
2019-05-16T19:26:20.350Z,12.60
2019-05-16T19:28:51.640Z,12.70
2019-05-16T19:31:21.276Z,12.50
2019-05-16T19:33:51.768Z,12.50
2019-05-16T19:36:22.258Z,12.40
2019-05-16T19:38:52.049Z,12.40
2019-05-16T19:41:22.452Z,12.20
2019-05-16T19:43:52.685Z,12.10
2019-05-16T19:46:23.606Z,12.20
2019-05-16T19:48:54.126Z,12.10
2019-05-16T19:51:23.780Z,12.00
2019-05-16T19:53:56.444Z,12.10
2019-05-16T19:56:26.994Z,12.00
2019-05-16T19:58:57.273Z,11.90
2019-05-16T20:01:27.524Z,12.00
2019-05-16T20:03:57.941Z,11.90
2019-05-16T20:06:28.589Z,11.80
2019-05-16T20:08:58.755Z,11.70
2019-05-16T20:11:28.542Z,11.50
2019-05-16T20:13:58.814Z,11.30
2019-05-16T20:16:28.923Z,11.30
2019-05-16T20:18:59.052Z,11.20
2019-05-16T20:21:29.217Z,11.10
2019-05-16T20:23:59.524Z,11.10
2019-05-16T20:26:29.953Z,11.30
2019-05-16T20:28:59.702Z,11.20
2019-05-16T20:31:29.381Z,11.10
2019-05-16T20:33:59.830Z,11.10
2019-05-16T20:36:29.911Z,11.20
2019-05-16T20:39:00.300Z,11.20
2019-05-16T20:41:30.938Z,11.10
2019-05-16T20:44:00.865Z,11.00
2019-05-16T20:46:32.161Z,11.00
2019-05-16T20:49:02.834Z,11.00
2019-05-16T20:51:32.958Z,11.10
2019-05-16T20:54:03.344Z,11.10
2019-05-16T20:56:33.287Z,11.10
2019-05-16T20:59:03.244Z,11.20
2019-05-16T21:01:33.491Z,11.00
2019-05-16T21:04:06.786Z,11.00
2019-05-16T21:06:35.718Z,10.90
2019-05-16T21:09:06.898Z,10.80
2019-05-16T21:11:37.402Z,10.90
2019-05-16T21:14:08.127Z,10.80
2019-05-16T21:16:38.305Z,10.80
2019-05-16T21:19:08.131Z,10.80
2019-05-16T21:21:38.362Z,10.80
2019-05-16T21:24:08.289Z,10.70
2019-05-16T21:26:38.494Z,10.50
2019-05-16T21:29:08.347Z,10.60
2019-05-16T21:31:38.516Z,10.60
2019-05-16T21:34:08.647Z,10.60
2019-05-16T21:36:39.735Z,10.50
2019-05-16T21:39:10.866Z,10.50
2019-05-16T21:41:41.820Z,10.50
2019-05-16T21:44:12.109Z,10.70
2019-05-16T21:46:42.995Z,10.60
2019-05-16T21:49:13.158Z,10.60
2019-05-16T21:51:43.752Z,10.60
2019-05-16T21:54:13.787Z,10.60
2019-05-16T21:56:46.640Z,10.60
2019-05-16T21:59:16.470Z,10.50
2019-05-16T22:01:47.299Z,10.50
2019-05-16T22:04:18.198Z,10.50
2019-05-16T22:06:48.410Z,10.50
2019-05-16T22:09:18.306Z,10.40
2019-05-16T22:11:48.414Z,10.40
2019-05-16T22:14:24.786Z,10.40
2019-05-16T22:16:56.890Z,10.50
2019-05-16T22:19:27.619Z,10.50
2019-05-16T22:21:58.515Z,10.50
2019-05-16T22:24:28.684Z,10.50
2019-05-16T22:26:58.826Z,10.50
2019-05-16T22:29:29.216Z,10.50
2019-05-16T22:31:59.153Z,10.50
2019-05-16T22:34:29.070Z,10.50
2019-05-16T22:36:59.575Z,10.40
2019-05-16T22:39:29.419Z,10.40
2019-05-16T22:41:59.148Z,10.40
2019-05-16T22:44:29.665Z,10.40
2019-05-16T22:46:59.687Z,10.30
2019-05-16T22:49:30.250Z,10.20
2019-05-16T22:52:00.673Z,10.30
2019-05-16T22:54:31.303Z,10.40
2019-05-16T22:57:01.785Z,10.30
2019-05-16T22:59:31.919Z,10.30
2019-05-16T23:02:02.146Z,10.30
2019-05-16T23:04:32.188Z,10.30
2019-05-16T23:07:01.867Z,10.20
2019-05-16T23:09:31.985Z,10.20
2019-05-16T23:12:01.994Z,10.20
2019-05-16T23:14:31.692Z,10.20
2019-05-16T23:17:01.492Z,10.30
2019-05-16T23:19:31.375Z,10.20
2019-05-16T23:22:01.462Z,10.20
2019-05-16T23:24:31.263Z,10.30
2019-05-16T23:27:01.035Z,10.20
2019-05-16T23:29:31.292Z,10.10
2019-05-16T23:32:01.060Z,10.10
2019-05-16T23:34:31.631Z,10.00
2019-05-16T23:37:02.232Z,10.10
2019-05-16T23:39:32.858Z,10.10
2019-05-16T23:42:02.772Z,10.20
2019-05-16T23:44:33.037Z,10.20
2019-05-16T23:47:03.263Z,10.10
2019-05-16T23:49:33.659Z,10.10
2019-05-16T23:52:04.385Z,10.10
2019-05-16T23:54:36.734Z,10.10
2019-05-16T23:57:06.587Z,10.00
2019-05-16T23:59:37.023Z,10.10
